sensor_id;sensor_type;location;lat;lon;timestamp;temperature;humidity
9861;DHT22;4969;52.304;4.968;2023-05-23T00:01:07;14.83;81.63
9861;DHT22;4969;52.304;4.968;2023-05-23T00:03:35;14.71;81.74
9861;DHT22;4969;52.304;4.968;2023-05-23T00:06:05;14.45;84.73
9861;DHT22;4969;52.304;4.968;2023-05-23T00:08:32;14.88;81.09
9861;DHT22;4969;52.304;4.968;2023-05-23T00:10:58;15.04;81.93
9861;DHT22;4969;52.304;4.968;2023-05-23T00:13:26;14.99;81.79
9861;DHT22;4969;52.304;4.968;2023-05-23T00:15:53;14.79;80.86
9861;DHT22;4969;52.304;4.968;2023-05-23T00:18:19;15.34;78.98
9861;DHT22;4969;52.304;4.968;2023-05-23T00:20:48;14.88;79.90
9861;DHT22;4969;52.304;4.968;2023-05-23T00:23:16;15.09;82.30
9861;DHT22;4969;52.304;4.968;2023-05-23T00:25:45;15.30;79.80
9861;DHT22;4969;52.304;4.968;2023-05-23T00:28:17;14.88;81.91
9861;DHT22;4969;52.304;4.968;2023-05-23T00:30:45;14.92;79.75
9861;DHT22;4969;52.304;4.968;2023-05-23T00:33:13;14.23;81.79
9861;DHT22;4969;52.304;4.968;2023-05-23T00:35:40;14.58;85.26
9861;DHT22;4969;52.304;4.968;2023-05-23T00:38:07;14.62;82.19
9861;DHT22;4969;52.304;4.968;2023-05-23T00:40:35;14.61;80.86
9861;DHT22;4969;52.304;4.968;2023-05-23T00:43:02;14.37;82.24
9861;DHT22;4969;52.304;4.968;2023-05-23T00:45:28;14.42;81.75
9861;DHT22;4969;52.304;4.968;2023-05-23T00:47:56;14.52;81.55
9861;DHT22;4969;52.304;4.968;2023-05-23T00:50:24;14.81;82.05
9861;DHT22;4969;52.304;4.968;2023-05-23T00:52:54;14.50;84.40
9861;DHT22;4969;52.304;4.968;2023-05-23T00:55:21;14.79;82.13
9861;DHT22;4969;52.304;4.968;2023-05-23T00:57:48;14.82;83.08
9861;DHT22;4969;52.304;4.968;2023-05-23T01:00:15;14.68;82.35
9861;DHT22;4969;52.304;4.968;2023-05-23T01:02:46;14.42;83.38
9861;DHT22;4969;52.304;4.968;2023-05-23T01:05:17;15.06;83.27
9861;DHT22;4969;52.304;4.968;2023-05-23T01:07:47;14.45;83.50
9861;DHT22;4969;52.304;4.968;2023-05-23T01:10:16;14.38;85.14
9861;DHT22;4969;52.304;4.968;2023-05-23T01:12:49;14.50;85.63
9861;DHT22;4969;52.304;4.968;2023-05-23T01:15:21;14.37;82.69
9861;DHT22;4969;52.304;4.968;2023-05-23T01:17:52;14.60;82.87
9861;DHT22;4969;52.304;4.968;2023-05-23T01:20:24;14.76;81.63
9861;DHT22;4969;52.304;4.968;2023-05-23T01:23:09;14.17;82.92
9861;DHT22;4969;52.304;4.968;2023-05-23T01:25:47;14.24;83.56
9861;DHT22;4969;52.304;4.968;2023-05-23T01:28:20;14.45;81.59
9861;DHT22;4969;52.304;4.968;2023-05-23T01:30:51;14.48;84.28
9861;DHT22;4969;52.304;4.968;2023-05-23T01:33:21;14.42;82.56
9861;DHT22;4969;52.304;4.968;2023-05-23T01:35:49;14.47;80.35
9861;DHT22;4969;52.304;4.968;2023-05-23T01:38:16;14.64;81.78
9861;DHT22;4969;52.304;4.968;2023-05-23T01:40:42;14.71;80.24
9861;DHT22;4969;52.304;4.968;2023-05-23T01:43:09;13.99;81.98
9861;DHT22;4969;52.304;4.968;2023-05-23T01:45:37;13.99;82.85
9861;DHT22;4969;52.304;4.968;2023-05-23T01:48:04;14.03;83.81
9861;DHT22;4969;52.304;4.968;2023-05-23T01:50:31;14.42;81.99
9861;DHT22;4969;52.304;4.968;2023-05-23T01:52:59;14.24;80.56
9861;DHT22;4969;52.304;4.968;2023-05-23T01:55:26;14.26;81.16
9861;DHT22;4969;52.304;4.968;2023-05-23T01:57:54;14.37;81.46
9861;DHT22;4969;52.304;4.968;2023-05-23T02:00:22;14.48;79.79
9861;DHT22;4969;52.304;4.968;2023-05-23T02:02:50;14.57;82.02
9861;DHT22;4969;52.304;4.968;2023-05-23T02:05:17;14.52;82.17
9861;DHT22;4969;52.304;4.968;2023-05-23T02:07:43;14.58;80.96
9861;DHT22;4969;52.304;4.968;2023-05-23T02:10:10;14.34;80.25
9861;DHT22;4969;52.304;4.968;2023-05-23T02:12:37;14.48;80.87
9861;DHT22;4969;52.304;4.968;2023-05-23T02:15:04;14.12;81.09
9861;DHT22;4969;52.304;4.968;2023-05-23T02:17:31;14.40;81.69
9861;DHT22;4969;52.304;4.968;2023-05-23T02:19:59;14.38;81.00
9861;DHT22;4969;52.304;4.968;2023-05-23T02:22:26;15.23;80.54
9861;DHT22;4969;52.304;4.968;2023-05-23T02:24:53;14.86;77.49
9861;DHT22;4969;52.304;4.968;2023-05-23T02:27:19;14.88;76.81
9861;DHT22;4969;52.304;4.968;2023-05-23T02:29:46;14.24;79.68
9861;DHT22;4969;52.304;4.968;2023-05-23T02:32:12;14.50;80.59
9861;DHT22;4969;52.304;4.968;2023-05-23T02:34:39;14.44;78.35
9861;DHT22;4969;52.304;4.968;2023-05-23T02:37:07;14.57;77.57
9861;DHT22;4969;52.304;4.968;2023-05-23T02:39:34;15.04;75.51
9861;DHT22;4969;52.304;4.968;2023-05-23T02:42:01;15.03;77.41
9861;DHT22;4969;52.304;4.968;2023-05-23T02:44:27;15.71;79.31
9861;DHT22;4969;52.304;4.968;2023-05-23T02:46:54;14.62;76.61
9861;DHT22;4969;52.304;4.968;2023-05-23T02:49:20;14.06;78.68
9861;DHT22;4969;52.304;4.968;2023-05-23T02:51:47;13.78;78.94
9861;DHT22;4969;52.304;4.968;2023-05-23T02:54:15;15.10;77.16
9861;DHT22;4969;52.304;4.968;2023-05-23T02:56:41;14.44;80.79
9861;DHT22;4969;52.304;4.968;2023-05-23T02:59:08;14.28;79.18
9861;DHT22;4969;52.304;4.968;2023-05-23T03:01:36;14.88;75.77
9861;DHT22;4969;52.304;4.968;2023-05-23T03:04:03;14.76;75.32
9861;DHT22;4969;52.304;4.968;2023-05-23T03:06:29;14.79;80.23
9861;DHT22;4969;52.304;4.968;2023-05-23T03:08:58;14.95;78.67
9861;DHT22;4969;52.304;4.968;2023-05-23T03:11:26;14.76;74.63
9861;DHT22;4969;52.304;4.968;2023-05-23T03:13:54;14.03;77.93
9861;DHT22;4969;52.304;4.968;2023-05-23T03:16:21;13.86;77.58
9861;DHT22;4969;52.304;4.968;2023-05-23T03:18:47;14.09;76.64
9861;DHT22;4969;52.304;4.968;2023-05-23T03:21:14;14.40;78.52
9861;DHT22;4969;52.304;4.968;2023-05-23T03:23:40;13.97;78.56
9861;DHT22;4969;52.304;4.968;2023-05-23T03:26:07;14.14;77.29
9861;DHT22;4969;52.304;4.968;2023-05-23T03:28:35;13.96;77.60
9861;DHT22;4969;52.304;4.968;2023-05-23T03:31:01;13.92;76.97
9861;DHT22;4969;52.304;4.968;2023-05-23T03:33:28;14.00;80.74
9861;DHT22;4969;52.304;4.968;2023-05-23T03:35:54;13.75;77.39
9861;DHT22;4969;52.304;4.968;2023-05-23T03:38:21;13.92;77.95
9861;DHT22;4969;52.304;4.968;2023-05-23T03:40:48;13.77;76.89
9861;DHT22;4969;52.304;4.968;2023-05-23T03:43:14;13.97;76.56
9861;DHT22;4969;52.304;4.968;2023-05-23T03:45:42;13.68;78.07
9861;DHT22;4969;52.304;4.968;2023-05-23T03:48:09;14.14;79.23
9861;DHT22;4969;52.304;4.968;2023-05-23T03:50:36;13.85;76.41
9861;DHT22;4969;52.304;4.968;2023-05-23T03:53:03;13.86;77.46
9861;DHT22;4969;52.304;4.968;2023-05-23T03:55:30;13.86;76.00
9861;DHT22;4969;52.304;4.968;2023-05-23T03:57:57;13.54;77.85
9861;DHT22;4969;52.304;4.968;2023-05-23T04:00:23;13.30;79.06
9861;DHT22;4969;52.304;4.968;2023-05-23T04:02:51;12.91;78.62
9861;DHT22;4969;52.304;4.968;2023-05-23T04:05:18;13.51;81.98
9861;DHT22;4969;52.304;4.968;2023-05-23T04:07:44;13.69;78.05
9861;DHT22;4969;52.304;4.968;2023-05-23T04:10:11;13.90;76.64
9861;DHT22;4969;52.304;4.968;2023-05-23T04:12:38;13.83;77.04
9861;DHT22;4969;52.304;4.968;2023-05-23T04:15:07;13.89;75.54
9861;DHT22;4969;52.304;4.968;2023-05-23T04:17:34;13.58;74.94
9861;DHT22;4969;52.304;4.968;2023-05-23T04:20:06;13.34;79.14
9861;DHT22;4969;52.304;4.968;2023-05-23T04:22:33;13.81;76.08
9861;DHT22;4969;52.304;4.968;2023-05-23T04:25:00;13.40;76.76
9861;DHT22;4969;52.304;4.968;2023-05-23T04:27:26;13.86;80.50
9861;DHT22;4969;52.304;4.968;2023-05-23T04:29:53;13.44;77.55
9861;DHT22;4969;52.304;4.968;2023-05-23T04:32:20;14.09;79.02
9861;DHT22;4969;52.304;4.968;2023-05-23T04:34:47;13.33;76.88
9861;DHT22;4969;52.304;4.968;2023-05-23T04:37:15;12.91;75.89
9861;DHT22;4969;52.304;4.968;2023-05-23T04:39:46;13.72;77.64
9861;DHT22;4969;52.304;4.968;2023-05-23T04:42:13;13.68;76.70
9861;DHT22;4969;52.304;4.968;2023-05-23T04:44:40;13.89;75.44
9861;DHT22;4969;52.304;4.968;2023-05-23T04:47:07;13.31;75.32
9861;DHT22;4969;52.304;4.968;2023-05-23T04:49:35;13.54;73.68
9861;DHT22;4969;52.304;4.968;2023-05-23T04:52:01;13.47;75.30
9861;DHT22;4969;52.304;4.968;2023-05-23T04:54:29;13.34;78.47
9861;DHT22;4969;52.304;4.968;2023-05-23T04:56:57;13.40;74.22
9861;DHT22;4969;52.304;4.968;2023-05-23T04:59:24;13.75;72.98
9861;DHT22;4969;52.304;4.968;2023-05-23T05:01:50;12.80;73.38
9861;DHT22;4969;52.304;4.968;2023-05-23T05:04:17;12.78;75.30
9861;DHT22;4969;52.304;4.968;2023-05-23T05:06:44;12.85;74.22
9861;DHT22;4969;52.304;4.968;2023-05-23T05:09:12;12.62;74.09
9861;DHT22;4969;52.304;4.968;2023-05-23T05:11:40;12.95;73.73
9861;DHT22;4969;52.304;4.968;2023-05-23T05:14:06;12.73;74.47
9861;DHT22;4969;52.304;4.968;2023-05-23T05:16:33;12.61;75.65
9861;DHT22;4969;52.304;4.968;2023-05-23T05:19:00;12.68;75.92
9861;DHT22;4969;52.304;4.968;2023-05-23T05:21:27;13.30;73.72
9861;DHT22;4969;52.304;4.968;2023-05-23T05:23:53;13.03;73.87
9861;DHT22;4969;52.304;4.968;2023-05-23T05:26:20;12.62;74.16
9861;DHT22;4969;52.304;4.968;2023-05-23T05:28:48;12.97;72.65
9861;DHT22;4969;52.304;4.968;2023-05-23T05:31:15;12.64;73.70
9861;DHT22;4969;52.304;4.968;2023-05-23T05:33:43;12.76;77.99
9861;DHT22;4969;52.304;4.968;2023-05-23T05:36:10;12.48;74.83
9861;DHT22;4969;52.304;4.968;2023-05-23T05:38:36;13.12;76.11
9861;DHT22;4969;52.304;4.968;2023-05-23T05:41:03;13.41;73.30
9861;DHT22;4969;52.304;4.968;2023-05-23T05:43:30;13.20;77.00
9861;DHT22;4969;52.304;4.968;2023-05-23T05:45:58;13.10;79.37
9861;DHT22;4969;52.304;4.968;2023-05-23T05:48:24;12.68;74.47
9861;DHT22;4969;52.304;4.968;2023-05-23T05:50:51;12.73;75.89
9861;DHT22;4969;52.304;4.968;2023-05-23T05:53:17;12.82;75.32
9861;DHT22;4969;52.304;4.968;2023-05-23T05:55:44;13.26;75.37
9861;DHT22;4969;52.304;4.968;2023-05-23T05:58:10;12.83;76.28
9861;DHT22;4969;52.304;4.968;2023-05-23T06:00:37;13.35;74.89
9861;DHT22;4969;52.304;4.968;2023-05-23T06:03:08;13.31;78.17
9861;DHT22;4969;52.304;4.968;2023-05-23T06:05:35;13.16;77.52
9861;DHT22;4969;52.304;4.968;2023-05-23T06:08:03;13.00;77.89
9861;DHT22;4969;52.304;4.968;2023-05-23T06:10:30;13.00;76.61
9861;DHT22;4969;52.304;4.968;2023-05-23T06:12:57;12.64;77.80
9861;DHT22;4969;52.304;4.968;2023-05-23T06:15:23;12.73;79.38
9861;DHT22;4969;52.304;4.968;2023-05-23T06:17:50;12.58;79.17
9861;DHT22;4969;52.304;4.968;2023-05-23T06:20:18;12.57;79.29
9861;DHT22;4969;52.304;4.968;2023-05-23T06:22:45;12.55;80.65
9861;DHT22;4969;52.304;4.968;2023-05-23T06:25:11;12.93;77.67
9861;DHT22;4969;52.304;4.968;2023-05-23T06:27:38;12.36;78.25
9861;DHT22;4969;52.304;4.968;2023-05-23T06:30:05;12.29;79.46
9861;DHT22;4969;52.304;4.968;2023-05-23T06:32:32;12.65;79.06
9861;DHT22;4969;52.304;4.968;2023-05-23T06:34:58;12.64;80.90
9861;DHT22;4969;52.304;4.968;2023-05-23T06:37:26;12.79;78.66
9861;DHT22;4969;52.304;4.968;2023-05-23T06:39:53;12.69;78.34
9861;DHT22;4969;52.304;4.968;2023-05-23T06:42:19;13.13;79.01
9861;DHT22;4969;52.304;4.968;2023-05-23T06:44:46;12.92;75.77
9861;DHT22;4969;52.304;4.968;2023-05-23T06:47:13;12.99;76.22
9861;DHT22;4969;52.304;4.968;2023-05-23T06:49:39;13.13;76.09
9861;DHT22;4969;52.304;4.968;2023-05-23T06:52:06;13.28;75.74
9861;DHT22;4969;52.304;4.968;2023-05-23T06:54:34;14.12;78.52
9861;DHT22;4969;52.304;4.968;2023-05-23T06:57:00;13.75;70.92
9861;DHT22;4969;52.304;4.968;2023-05-23T06:59:27;12.97;71.68
9861;DHT22;4969;52.304;4.968;2023-05-23T07:01:53;13.52;76.27
9861;DHT22;4969;52.304;4.968;2023-05-23T07:04:20;13.34;73.78
9861;DHT22;4969;52.304;4.968;2023-05-23T07:06:46;13.12;70.13
9861;DHT22;4969;52.304;4.968;2023-05-23T07:09:13;13.40;73.13
9861;DHT22;4969;52.304;4.968;2023-05-23T07:11:41;13.62;68.60
9861;DHT22;4969;52.304;4.968;2023-05-23T07:14:07;13.03;69.65
9861;DHT22;4969;52.304;4.968;2023-05-23T07:16:34;13.24;69.08
9861;DHT22;4969;52.304;4.968;2023-05-23T07:19:01;13.09;69.01
9861;DHT22;4969;52.304;4.968;2023-05-23T07:21:29;12.99;69.23
9861;DHT22;4969;52.304;4.968;2023-05-23T07:23:56;12.95;69.61
9861;DHT22;4969;52.304;4.968;2023-05-23T07:26:22;13.42;74.81
9861;DHT22;4969;52.304;4.968;2023-05-23T07:28:50;13.20;69.16
9861;DHT22;4969;52.304;4.968;2023-05-23T07:31:17;13.31;69.25
9861;DHT22;4969;52.304;4.968;2023-05-23T07:33:44;13.14;68.60
9861;DHT22;4969;52.304;4.968;2023-05-23T07:36:10;13.42;69.98
9861;DHT22;4969;52.304;4.968;2023-05-23T07:38:37;13.40;68.79
9861;DHT22;4969;52.304;4.968;2023-05-23T07:41:03;13.12;69.60
9861;DHT22;4969;52.304;4.968;2023-05-23T07:43:30;13.41;73.24
9861;DHT22;4969;52.304;4.968;2023-05-23T07:45:58;13.31;70.79
9861;DHT22;4969;52.304;4.968;2023-05-23T07:48:24;13.77;70.19
9861;DHT22;4969;52.304;4.968;2023-05-23T07:50:51;13.50;73.92
9861;DHT22;4969;52.304;4.968;2023-05-23T07:53:19;13.48;67.12
9861;DHT22;4969;52.304;4.968;2023-05-23T07:55:46;13.93;64.77
9861;DHT22;4969;52.304;4.968;2023-05-23T07:58:12;13.66;65.16
9861;DHT22;4969;52.304;4.968;2023-05-23T08:00:39;13.61;69.09
9861;DHT22;4969;52.304;4.968;2023-05-23T08:03:07;13.85;65.67
9861;DHT22;4969;52.304;4.968;2023-05-23T08:05:34;14.26;63.78
9861;DHT22;4969;52.304;4.968;2023-05-23T08:08:00;14.20;64.98
9861;DHT22;4969;52.304;4.968;2023-05-23T08:10:27;13.79;64.85
9861;DHT22;4969;52.304;4.968;2023-05-23T08:12:54;13.96;64.36
9861;DHT22;4969;52.304;4.968;2023-05-23T08:15:20;14.10;63.13
9861;DHT22;4969;52.304;4.968;2023-05-23T08:17:48;14.13;63.90
9861;DHT22;4969;52.304;4.968;2023-05-23T08:20:16;13.92;62.30
9861;DHT22;4969;52.304;4.968;2023-05-23T08:22:42;13.96;62.35
9861;DHT22;4969;52.304;4.968;2023-05-23T08:25:09;13.83;63.46
9861;DHT22;4969;52.304;4.968;2023-05-23T08:27:36;13.88;64.34
9861;DHT22;4969;52.304;4.968;2023-05-23T08:30:03;14.09;65.13
9861;DHT22;4969;52.304;4.968;2023-05-23T08:32:30;14.68;68.44
9861;DHT22;4969;52.304;4.968;2023-05-23T08:34:57;14.38;62.06
9861;DHT22;4969;52.304;4.968;2023-05-23T08:37:25;14.17;63.09
9861;DHT22;4969;52.304;4.968;2023-05-23T08:39:51;14.57;65.98
9861;DHT22;4969;52.304;4.968;2023-05-23T08:42:18;14.68;65.92
9861;DHT22;4969;52.304;4.968;2023-05-23T08:44:44;14.24;63.38
9861;DHT22;4969;52.304;4.968;2023-05-23T08:47:12;13.62;64.46
9861;DHT22;4969;52.304;4.968;2023-05-23T08:49:42;14.92;73.41
9861;DHT22;4969;52.304;4.968;2023-05-23T08:52:11;14.98;62.12
9861;DHT22;4969;52.304;4.968;2023-05-23T08:54:41;15.10;68.54
9861;DHT22;4969;52.304;4.968;2023-05-23T08:57:08;14.40;62.28
9861;DHT22;4969;52.304;4.968;2023-05-23T08:59:35;14.62;62.35
9861;DHT22;4969;52.304;4.968;2023-05-23T09:02:07;14.48;61.92
9861;DHT22;4969;52.304;4.968;2023-05-23T09:04:35;14.30;63.98
9861;DHT22;4969;52.304;4.968;2023-05-23T09:07:03;14.33;62.95
9861;DHT22;4969;52.304;4.968;2023-05-23T09:09:29;14.06;61.17
9861;DHT22;4969;52.304;4.968;2023-05-23T09:11:57;14.24;61.22
9861;DHT22;4969;52.304;4.968;2023-05-23T09:14:25;14.35;60.43
9861;DHT22;4969;52.304;4.968;2023-05-23T09:16:59;14.20;61.78
9861;DHT22;4969;52.304;4.968;2023-05-23T09:19:26;14.35;61.01
9861;DHT22;4969;52.304;4.968;2023-05-23T09:21:52;14.26;63.12
9861;DHT22;4969;52.304;4.968;2023-05-23T09:24:20;14.40;67.90
9861;DHT22;4969;52.304;4.968;2023-05-23T09:26:47;14.50;67.22
9861;DHT22;4969;52.304;4.968;2023-05-23T09:29:18;14.68;63.98
9861;DHT22;4969;52.304;4.968;2023-05-23T09:31:45;14.72;62.36
9861;DHT22;4969;52.304;4.968;2023-05-23T09:34:11;14.68;61.10
9861;DHT22;4969;52.304;4.968;2023-05-23T09:36:40;14.35;60.23
9861;DHT22;4969;52.304;4.968;2023-05-23T09:39:10;14.16;61.44
9861;DHT22;4969;52.304;4.968;2023-05-23T09:41:37;14.33;62.12
9861;DHT22;4969;52.304;4.968;2023-05-23T09:44:05;15.07;64.13
9861;DHT22;4969;52.304;4.968;2023-05-23T09:46:36;15.27;65.62
9861;DHT22;4969;52.304;4.968;2023-05-23T09:49:13;14.12;62.61
9861;DHT22;4969;52.304;4.968;2023-05-23T09:51:40;14.58;62.90
9861;DHT22;4969;52.304;4.968;2023-05-23T09:54:07;14.85;65.55
9861;DHT22;4969;52.304;4.968;2023-05-23T09:56:34;15.20;61.66
9861;DHT22;4969;52.304;4.968;2023-05-23T09:59:03;14.78;59.55
9861;DHT22;4969;52.304;4.968;2023-05-23T10:01:34;14.58;59.06
9861;DHT22;4969;52.304;4.968;2023-05-23T10:04:02;14.55;58.54
9861;DHT22;4969;52.304;4.968;2023-05-23T10:06:33;14.40;60.98
9861;DHT22;4969;52.304;4.968;2023-05-23T10:09:05;14.23;61.91
9861;DHT22;4969;52.304;4.968;2023-05-23T10:14:29;14.50;62.81
9861;DHT22;4969;52.304;4.968;2023-05-23T10:17:05;14.82;63.66
9861;DHT22;4969;52.304;4.968;2023-05-23T10:19:37;14.88;60.75
9861;DHT22;4969;52.304;4.968;2023-05-23T10:22:09;15.58;69.29
9861;DHT22;4969;52.304;4.968;2023-05-23T10:24:36;15.16;59.43
9861;DHT22;4969;52.304;4.968;2023-05-23T10:27:04;14.86;60.04
9861;DHT22;4969;52.304;4.968;2023-05-23T10:29:32;14.65;62.37
9861;DHT22;4969;52.304;4.968;2023-05-23T10:32:01;14.95;65.01
9861;DHT22;4969;52.304;4.968;2023-05-23T10:34:33;15.64;59.11
9861;DHT22;4969;52.304;4.968;2023-05-23T10:37:02;16.06;56.84
9861;DHT22;4969;52.304;4.968;2023-05-23T10:39:41;15.07;59.26
9861;DHT22;4969;52.304;4.968;2023-05-23T10:42:16;15.38;60.00
9861;DHT22;4969;52.304;4.968;2023-05-23T10:44:43;14.98;58.04
9861;DHT22;4969;52.304;4.968;2023-05-23T10:47:10;15.62;59.50
9861;DHT22;4969;52.304;4.968;2023-05-23T10:49:41;15.59;56.48
9861;DHT22;4969;52.304;4.968;2023-05-23T10:52:09;15.57;57.26
9861;DHT22;4969;52.304;4.968;2023-05-23T10:54:41;15.34;61.16
9861;DHT22;4969;52.304;4.968;2023-05-23T10:57:09;15.43;59.93
9861;DHT22;4969;52.304;4.968;2023-05-23T10:59:36;15.02;58.57
9861;DHT22;4969;52.304;4.968;2023-05-23T11:02:09;14.90;59.02
9861;DHT22;4969;52.304;4.968;2023-05-23T11:04:39;15.09;59.03
9861;DHT22;4969;52.304;4.968;2023-05-23T11:10:02;14.98;58.16
9861;DHT22;4969;52.304;4.968;2023-05-23T11:12:36;15.34;57.82
9861;DHT22;4969;52.304;4.968;2023-05-23T11:15:18;15.04;56.76
9861;DHT22;4969;52.304;4.968;2023-05-23T11:17:50;14.81;58.99
9861;DHT22;4969;52.304;4.968;2023-05-23T11:20:19;14.82;59.18
9861;DHT22;4969;52.304;4.968;2023-05-23T11:22:58;15.14;56.48
9861;DHT22;4969;52.304;4.968;2023-05-23T11:25:40;15.97;56.64
9861;DHT22;4969;52.304;4.968;2023-05-23T11:28:07;15.41;60.20
9861;DHT22;4969;52.304;4.968;2023-05-23T11:30:34;15.62;58.99
9861;DHT22;4969;52.304;4.968;2023-05-23T11:33:06;15.87;54.57
9861;DHT22;4969;52.304;4.968;2023-05-23T11:35:35;16.10;56.15
9861;DHT22;4969;52.304;4.968;2023-05-23T11:38:03;16.38;54.64
9861;DHT22;4969;52.304;4.968;2023-05-23T11:40:31;15.68;55.11
9861;DHT22;4969;52.304;4.968;2023-05-23T11:42:59;15.55;56.37
9861;DHT22;4969;52.304;4.968;2023-05-23T11:45:27;15.73;55.24
9861;DHT22;4969;52.304;4.968;2023-05-23T11:47:53;15.83;55.86
9861;DHT22;4969;52.304;4.968;2023-05-23T11:50:20;15.89;56.78
9861;DHT22;4969;52.304;4.968;2023-05-23T11:52:49;15.92;57.96
9861;DHT22;4969;52.304;4.968;2023-05-23T11:55:17;16.17;52.92
9861;DHT22;4969;52.304;4.968;2023-05-23T11:57:44;15.51;53.51
9861;DHT22;4969;52.304;4.968;2023-05-23T12:00:11;15.36;56.21
9861;DHT22;4969;52.304;4.968;2023-05-23T12:02:39;15.72;57.11
9861;DHT22;4969;52.304;4.968;2023-05-23T12:05:07;15.86;57.96
9861;DHT22;4969;52.304;4.968;2023-05-23T12:07:34;16.36;64.04
9861;DHT22;4969;52.304;4.968;2023-05-23T12:10:03;16.69;53.22
9861;DHT22;4969;52.304;4.968;2023-05-23T12:12:30;15.51;54.59
9861;DHT22;4969;52.304;4.968;2023-05-23T12:14:58;14.98;57.72
9861;DHT22;4969;52.304;4.968;2023-05-23T12:17:25;15.71;59.36
9861;DHT22;4969;52.304;4.968;2023-05-23T12:19:51;15.78;54.15
9861;DHT22;4969;52.304;4.968;2023-05-23T12:22:21;15.93;53.31
9861;DHT22;4969;52.304;4.968;2023-05-23T12:24:52;15.38;54.64
9861;DHT22;4969;52.304;4.968;2023-05-23T12:27:25;15.61;55.93
9861;DHT22;4969;52.304;4.968;2023-05-23T12:30:03;15.45;53.08
9861;DHT22;4969;52.304;4.968;2023-05-23T12:32:31;15.92;53.64
9861;DHT22;4969;52.304;4.968;2023-05-23T12:34:57;16.06;53.45
9861;DHT22;4969;52.304;4.968;2023-05-23T12:37:24;15.83;54.32
9861;DHT22;4969;52.304;4.968;2023-05-23T12:39:51;15.51;54.93
9861;DHT22;4969;52.304;4.968;2023-05-23T12:42:17;15.24;54.58
9861;DHT22;4969;52.304;4.968;2023-05-23T12:44:50;15.85;55.89
9861;DHT22;4969;52.304;4.968;2023-05-23T12:47:17;15.72;53.34
9861;DHT22;4969;52.304;4.968;2023-05-23T12:49:44;15.55;59.22
9861;DHT22;4969;52.304;4.968;2023-05-23T12:52:12;15.59;54.00
9861;DHT22;4969;52.304;4.968;2023-05-23T12:54:38;16.16;54.07
9861;DHT22;4969;52.304;4.968;2023-05-23T12:57:05;15.90;54.45
9861;DHT22;4969;52.304;4.968;2023-05-23T12:59:31;16.16;51.95
9861;DHT22;4969;52.304;4.968;2023-05-23T13:02:00;16.27;52.79
9861;DHT22;4969;52.304;4.968;2023-05-23T13:04:26;16.08;49.89
9861;DHT22;4969;52.304;4.968;2023-05-23T13:06:53;15.97;52.67
9861;DHT22;4969;52.304;4.968;2023-05-23T13:09:19;16.08;53.49
9861;DHT22;4969;52.304;4.968;2023-05-23T13:11:46;16.21;49.25
9861;DHT22;4969;52.304;4.968;2023-05-23T13:14:13;16.10;50.93
9861;DHT22;4969;52.304;4.968;2023-05-23T13:16:39;15.64;52.14
9861;DHT22;4969;52.304;4.968;2023-05-23T13:19:07;15.44;54.03
9861;DHT22;4969;52.304;4.968;2023-05-23T13:21:34;15.40;54.60
9861;DHT22;4969;52.304;4.968;2023-05-23T13:24:00;15.24;55.53
9861;DHT22;4969;52.304;4.968;2023-05-23T13:26:27;15.54;55.06
9861;DHT22;4969;52.304;4.968;2023-05-23T13:28:54;16.05;53.86
9861;DHT22;4969;52.304;4.968;2023-05-23T13:31:20;16.57;53.90
9861;DHT22;4969;52.304;4.968;2023-05-23T13:33:47;15.31;51.83
9861;DHT22;4969;52.304;4.968;2023-05-23T13:36:15;15.38;51.76
9861;DHT22;4969;52.304;4.968;2023-05-23T13:38:41;15.78;56.65
9861;DHT22;4969;52.304;4.968;2023-05-23T13:41:08;15.50;49.29
9861;DHT22;4969;52.304;4.968;2023-05-23T13:43:34;15.97;51.63
9861;DHT22;4969;52.304;4.968;2023-05-23T13:46:01;16.52;57.69
9861;DHT22;4969;52.304;4.968;2023-05-23T13:48:28;15.73;50.92
9861;DHT22;4969;52.304;4.968;2023-05-23T13:50:55;15.54;57.26
9861;DHT22;4969;52.304;4.968;2023-05-23T13:53:23;15.71;52.36
9861;DHT22;4969;52.304;4.968;2023-05-23T13:55:50;15.57;52.25
9861;DHT22;4969;52.304;4.968;2023-05-23T13:58:16;16.00;51.52
9861;DHT22;4969;52.304;4.968;2023-05-23T14:00:43;16.02;50.40
9861;DHT22;4969;52.304;4.968;2023-05-23T14:03:09;15.81;50.92
9861;DHT22;4969;52.304;4.968;2023-05-23T14:05:36;15.76;52.38
9861;DHT22;4969;52.304;4.968;2023-05-23T14:08:02;15.83;53.14
9861;DHT22;4969;52.304;4.968;2023-05-23T14:10:31;16.21;61.38
9861;DHT22;4969;52.304;4.968;2023-05-23T14:12:58;15.41;51.78
9861;DHT22;4969;52.304;4.968;2023-05-23T14:15:25;15.83;51.91
9861;DHT22;4969;52.304;4.968;2023-05-23T14:17:51;15.87;51.55
9861;DHT22;4969;52.304;4.968;2023-05-23T14:20:19;15.38;61.03
9861;DHT22;4969;52.304;4.968;2023-05-23T14:22:46;15.30;54.81
9861;DHT22;4969;52.304;4.968;2023-05-23T14:25:13;14.79;53.71
9861;DHT22;4969;52.304;4.968;2023-05-23T14:27:41;15.16;50.07
9861;DHT22;4969;52.304;4.968;2023-05-23T14:30:08;15.10;54.14
9861;DHT22;4969;52.304;4.968;2023-05-23T14:32:35;15.20;50.73
9861;DHT22;4969;52.304;4.968;2023-05-23T14:35:04;15.30;50.80
9861;DHT22;4969;52.304;4.968;2023-05-23T14:37:31;15.17;49.31
9861;DHT22;4969;52.304;4.968;2023-05-23T14:39:57;15.38;46.87
9861;DHT22;4969;52.304;4.968;2023-05-23T14:42:24;15.11;46.59
9861;DHT22;4969;52.304;4.968;2023-05-23T14:44:52;15.79;56.51
9861;DHT22;4969;52.304;4.968;2023-05-23T14:47:19;15.40;56.01
9861;DHT22;4969;52.304;4.968;2023-05-23T14:49:46;15.14;52.82
9861;DHT22;4969;52.304;4.968;2023-05-23T14:52:12;15.07;57.33
9861;DHT22;4969;52.304;4.968;2023-05-23T14:54:39;14.86;49.90
9861;DHT22;4969;52.304;4.968;2023-05-23T14:57:06;14.78;53.88
9861;DHT22;4969;52.304;4.968;2023-05-23T14:59:34;14.96;54.21
9861;DHT22;4969;52.304;4.968;2023-05-23T15:02:03;15.24;55.75
9861;DHT22;4969;52.304;4.968;2023-05-23T15:04:30;15.24;50.26
9861;DHT22;4969;52.304;4.968;2023-05-23T15:06:56;15.09;49.07
9861;DHT22;4969;52.304;4.968;2023-05-23T15:09:23;15.21;50.56
9861;DHT22;4969;52.304;4.968;2023-05-23T15:11:50;15.37;51.04
9861;DHT22;4969;52.304;4.968;2023-05-23T15:14:16;15.50;51.28
9861;DHT22;4969;52.304;4.968;2023-05-23T15:16:43;15.64;49.41
9861;DHT22;4969;52.304;4.968;2023-05-23T15:19:14;16.20;56.75
9861;DHT22;4969;52.304;4.968;2023-05-23T15:21:40;15.36;48.72
9861;DHT22;4969;52.304;4.968;2023-05-23T15:24:07;15.69;52.91
9861;DHT22;4969;52.304;4.968;2023-05-23T15:26:34;15.23;49.17
9861;DHT22;4969;52.304;4.968;2023-05-23T15:29:01;15.76;54.30
9861;DHT22;4969;52.304;4.968;2023-05-23T15:31:27;16.23;50.79
9861;DHT22;4969;52.304;4.968;2023-05-23T15:33:54;15.75;53.68
9861;DHT22;4969;52.304;4.968;2023-05-23T15:36:22;15.30;53.47
9861;DHT22;4969;52.304;4.968;2023-05-23T15:38:48;16.09;56.49
9861;DHT22;4969;52.304;4.968;2023-05-23T15:41:15;15.58;50.31
9861;DHT22;4969;52.304;4.968;2023-05-23T15:43:42;15.07;58.41
9861;DHT22;4969;52.304;4.968;2023-05-23T15:46:08;14.73;54.74
9861;DHT22;4969;52.304;4.968;2023-05-23T15:48:35;14.79;53.82
9861;DHT22;4969;52.304;4.968;2023-05-23T15:51:01;14.57;53.65
9861;DHT22;4969;52.304;4.968;2023-05-23T15:53:29;14.62;53.25
9861;DHT22;4969;52.304;4.968;2023-05-23T15:55:56;14.83;55.37
9861;DHT22;4969;52.304;4.968;2023-05-23T15:58:23;15.31;58.20
9861;DHT22;4969;52.304;4.968;2023-05-23T16:00:49;14.41;53.56
9861;DHT22;4969;52.304;4.968;2023-05-23T16:03:16;14.33;54.19
9861;DHT22;4969;52.304;4.968;2023-05-23T16:05:43;14.24;53.96
9861;DHT22;4969;52.304;4.968;2023-05-23T16:08:09;14.27;53.38
9861;DHT22;4969;52.304;4.968;2023-05-23T16:10:37;14.37;52.75